createdAt,value
2023-09-26T00:01:55.116Z,12.27
2023-09-26T00:04:25.509Z,12.40
2023-09-26T00:07:01.573Z,12.45
2023-09-26T00:09:31.926Z,12.40
2023-09-26T00:12:03.716Z,12.38
2023-09-26T00:14:34.155Z,12.36
2023-09-26T00:17:05.091Z,12.33
2023-09-26T00:19:35.078Z,12.31
2023-09-26T00:22:08.539Z,12.32
2023-09-26T00:24:39.078Z,12.36
2023-09-26T00:27:10.387Z,12.41
2023-09-26T00:29:41.856Z,12.46
2023-09-26T00:32:13.580Z,12.44
2023-09-26T00:34:45.104Z,12.43
2023-09-26T00:37:18.583Z,12.48
2023-09-26T00:39:49.836Z,12.44
2023-09-26T00:42:20.203Z,12.41
2023-09-26T00:44:51.492Z,12.39
2023-09-26T00:47:22.117Z,12.37
2023-09-26T00:49:52.552Z,12.38
2023-09-26T00:52:26.525Z,12.39
2023-09-26T00:54:56.931Z,12.43
2023-09-26T00:57:27.463Z,12.44
2023-09-26T00:59:59.044Z,12.40
2023-09-26T01:02:29.513Z,12.36
2023-09-26T01:05:00.405Z,12.35
2023-09-26T01:07:34.198Z,12.37
2023-09-26T01:10:04.777Z,12.36
2023-09-26T01:12:35.028Z,12.35
2023-09-26T01:15:07.048Z,12.33
2023-09-26T01:17:37.608Z,12.31
2023-09-26T01:20:13.652Z,12.36
2023-09-26T01:22:49.514Z,12.35
2023-09-26T01:25:22.447Z,12.31
2023-09-26T01:27:54.303Z,12.29
2023-09-26T01:30:24.644Z,12.26
2023-09-26T01:32:55.204Z,12.23
2023-09-26T01:35:25.662Z,12.19
2023-09-26T01:37:56.396Z,12.16
2023-09-26T01:40:32.267Z,12.17
2023-09-26T01:43:02.514Z,12.15
2023-09-26T01:45:32.842Z,12.13
2023-09-26T01:48:07.054Z,12.15
2023-09-26T01:50:40.924Z,12.22
2023-09-26T01:53:16.363Z,12.31
2023-09-26T01:55:50.434Z,12.36
2023-09-26T01:58:20.692Z,12.36
2023-09-26T02:00:51.391Z,12.37
2023-09-26T02:03:24.495Z,12.37
2023-09-26T02:05:56.186Z,12.35
2023-09-26T02:08:26.553Z,12.33
2023-09-26T02:10:58.955Z,12.27
2023-09-26T02:13:29.174Z,12.24
2023-09-26T02:15:59.328Z,12.18
2023-09-26T02:18:29.542Z,12.12
2023-09-26T02:20:59.368Z,12.13
2023-09-26T02:23:29.622Z,12.11
2023-09-26T02:26:01.903Z,12.10
2023-09-26T02:28:31.653Z,12.15
2023-09-26T02:31:01.486Z,12.14
2023-09-26T02:33:31.178Z,12.11
2023-09-26T02:36:00.911Z,12.19
2023-09-26T02:38:30.626Z,12.18
2023-09-26T02:41:03.109Z,12.17
2023-09-26T02:43:34.094Z,12.10
2023-09-26T02:46:05.360Z,11.99
2023-09-26T02:48:35.101Z,11.95
2023-09-26T02:51:07.941Z,11.98
2023-09-26T02:53:35.286Z,12.06
2023-09-26T02:56:12.516Z,12.06
2023-09-26T02:58:43.032Z,12.07
2023-09-26T03:01:18.185Z,12.03
2023-09-26T03:03:47.985Z,11.97
2023-09-26T03:06:17.969Z,11.93
2023-09-26T03:08:47.686Z,11.92
2023-09-26T03:11:20.011Z,11.96
2023-09-26T03:13:50.007Z,11.92
2023-09-26T03:16:20.570Z,11.88
2023-09-26T03:18:55.092Z,11.83
2023-09-26T03:21:25.094Z,11.78
2023-09-26T03:23:55.101Z,11.84
2023-09-26T03:26:28.911Z,11.79
2023-09-26T03:28:58.673Z,11.76
2023-09-26T03:31:30.328Z,11.75
2023-09-26T03:34:00.185Z,11.74
2023-09-26T03:36:30.696Z,11.74
2023-09-26T03:39:00.484Z,11.71
2023-09-26T03:41:33.030Z,11.67
2023-09-26T03:44:02.990Z,11.64
2023-09-26T03:46:32.972Z,11.64
2023-09-26T03:49:03.599Z,11.74
2023-09-26T03:51:33.339Z,11.81
2023-09-26T03:54:03.123Z,11.81
2023-09-26T03:56:35.519Z,11.80
2023-09-26T03:59:05.243Z,11.77
2023-09-26T04:01:35.038Z,11.76
2023-09-26T04:04:04.975Z,11.77
2023-09-26T04:06:35.387Z,11.74
2023-09-26T04:09:05.615Z,11.70
2023-09-26T04:11:37.937Z,11.68
2023-09-26T04:14:07.991Z,11.67
2023-09-26T04:16:39.867Z,11.68
2023-09-26T04:19:10.433Z,11.65
2023-09-26T04:21:40.454Z,11.67
2023-09-26T04:24:11.002Z,11.69
2023-09-26T04:26:43.253Z,11.74
2023-09-26T04:29:13.853Z,11.74
2023-09-26T04:31:43.606Z,11.76
2023-09-26T04:34:13.416Z,11.83
2023-09-26T04:36:43.097Z,11.85
2023-09-26T04:39:12.839Z,11.84
2023-09-26T04:41:46.779Z,11.85
2023-09-26T04:44:16.476Z,11.84
2023-09-26T04:46:46.581Z,11.84
2023-09-26T04:49:16.437Z,11.82
2023-09-26T04:51:46.272Z,11.77
2023-09-26T04:54:15.988Z,11.75
2023-09-26T04:56:48.251Z,11.77
2023-09-26T04:59:18.008Z,11.79
2023-09-26T05:01:50.264Z,11.79
2023-09-26T05:04:22.417Z,11.79
2023-09-26T05:06:52.258Z,11.80
2023-09-26T05:09:22.003Z,11.86
2023-09-26T05:11:54.299Z,11.91
2023-09-26T05:14:24.113Z,11.94
2023-09-26T05:16:54.512Z,11.99
2023-09-26T05:19:24.439Z,12.06
2023-09-26T05:21:54.910Z,12.11
2023-09-26T05:24:24.707Z,12.11
2023-09-26T05:26:56.988Z,12.10
2023-09-26T05:29:26.674Z,12.09
2023-09-26T05:31:56.443Z,12.11
2023-09-26T05:34:26.258Z,12.17
2023-09-26T05:36:56.428Z,12.31
2023-09-26T05:39:26.400Z,12.41
2023-09-26T05:41:59.137Z,12.57
2023-09-26T05:44:28.874Z,12.72
2023-09-26T05:46:58.753Z,12.78
2023-09-26T05:49:28.569Z,12.86
2023-09-26T05:51:58.381Z,13.03
2023-09-26T05:54:32.110Z,13.08
2023-09-26T05:57:06.471Z,13.27
2023-09-26T05:59:36.235Z,13.39
2023-09-26T06:02:06.132Z,13.57
2023-09-26T06:04:36.047Z,14.17
2023-09-26T06:07:05.971Z,14.57
2023-09-26T06:09:36.332Z,14.79
2023-09-26T06:12:09.041Z,15.09
2023-09-26T06:14:38.756Z,15.19
2023-09-26T06:17:08.648Z,15.41
2023-09-26T06:19:38.480Z,14.94
2023-09-26T06:22:08.592Z,14.78
2023-09-26T06:24:38.464Z,15.02
2023-09-26T06:27:10.811Z,15.19
2023-09-26T06:29:41.922Z,15.45
2023-09-26T06:32:11.782Z,15.74
2023-09-26T06:34:41.692Z,15.81
2023-09-26T06:37:11.510Z,16.52
2023-09-26T06:39:42.222Z,16.89
2023-09-26T06:42:14.555Z,17.74
2023-09-26T06:44:44.286Z,17.86
2023-09-26T06:47:14.417Z,17.57
2023-09-26T06:49:44.433Z,17.72
2023-09-26T06:52:14.264Z,17.52
2023-09-26T06:54:44.150Z,17.59
2023-09-26T06:57:19.155Z,17.74
2023-09-26T06:59:52.096Z,17.95
2023-09-26T07:02:22.321Z,18.56
2023-09-26T07:04:56.892Z,19.04
2023-09-26T07:07:31.648Z,18.61
2023-09-26T07:10:01.456Z,19.19
2023-09-26T07:12:34.278Z,19.07
2023-09-26T07:15:04.225Z,19.61
2023-09-26T07:17:35.488Z,20.35
2023-09-26T07:20:08.648Z,20.15
2023-09-26T07:25:09.309Z,20.14
2023-09-26T07:27:43.852Z,19.94
2023-09-26T07:30:14.995Z,19.44
2023-09-26T07:32:45.263Z,19.83
2023-09-26T07:35:15.281Z,20.21
2023-09-26T07:37:45.182Z,20.88
2023-09-26T07:40:15.333Z,21.10
2023-09-26T07:42:47.828Z,21.03
2023-09-26T07:45:18.371Z,20.90
2023-09-26T07:47:48.288Z,19.82
2023-09-26T07:50:18.105Z,19.71
2023-09-26T07:52:47.874Z,19.14
2023-09-26T07:55:17.844Z,19.11
2023-09-26T07:57:50.279Z,18.97
2023-09-26T08:00:21.071Z,18.89
2023-09-26T08:02:50.855Z,18.56
2023-09-26T08:05:20.788Z,18.22
2023-09-26T08:07:50.812Z,18.37
2023-09-26T08:10:20.917Z,18.34
2023-09-26T08:12:53.324Z,18.06
2023-09-26T08:15:23.258Z,17.70
2023-09-26T08:17:53.062Z,17.65
2023-09-26T08:20:22.887Z,17.65
2023-09-26T08:22:52.598Z,17.79
2023-09-26T08:25:22.494Z,17.76
2023-09-26T08:27:54.861Z,17.91
2023-09-26T08:30:24.999Z,18.11
2023-09-26T08:32:54.889Z,18.06
2023-09-26T08:35:24.670Z,18.01
2023-09-26T08:37:54.414Z,18.06
2023-09-26T08:40:29.685Z,18.07
2023-09-26T08:43:02.509Z,18.27
2023-09-26T08:45:32.452Z,18.17
2023-09-26T08:48:03.011Z,18.40
2023-09-26T08:50:32.869Z,18.33
2023-09-26T08:53:02.933Z,18.44
2023-09-26T08:55:33.824Z,18.08
2023-09-26T08:58:07.493Z,18.10
2023-09-26T09:00:37.418Z,18.39
2023-09-26T09:03:08.935Z,18.45
2023-09-26T09:05:40.437Z,18.51
2023-09-26T09:08:10.281Z,18.33
2023-09-26T09:10:51.941Z,18.23
2023-09-26T09:13:35.146Z,18.17
2023-09-26T09:16:16.265Z,18.15
2023-09-26T09:18:48.947Z,18.23
2023-09-26T09:21:26.839Z,18.17
2023-09-26T09:24:00.210Z,18.10
2023-09-26T09:26:34.223Z,18.26
2023-09-26T09:29:24.973Z,18.25
2023-09-26T09:31:55.551Z,18.33
2023-09-26T09:34:27.121Z,18.50
2023-09-26T09:36:58.945Z,18.44
2023-09-26T09:39:28.776Z,18.32
2023-09-26T09:42:02.516Z,18.62
2023-09-26T09:44:35.193Z,18.52
2023-09-26T09:47:06.967Z,18.51
2023-09-26T09:49:43.314Z,18.80
2023-09-26T09:52:14.196Z,18.94
2023-09-26T09:54:47.906Z,19.02
2023-09-26T09:57:19.649Z,18.73
2023-09-26T09:59:55.638Z,18.74
2023-09-26T10:02:26.085Z,18.62
2023-09-26T10:04:57.604Z,18.66
2023-09-26T10:07:29.048Z,18.74
2023-09-26T10:09:59.722Z,18.42
2023-09-26T10:12:34.967Z,18.20
2023-09-26T10:15:14.032Z,18.05
2023-09-26T10:17:44.936Z,18.30
2023-09-26T10:20:39.636Z,18.23
2023-09-26T10:23:14.360Z,18.62
2023-09-26T10:25:44.738Z,18.56
2023-09-26T10:28:14.568Z,18.42
2023-09-26T10:30:57.375Z,18.56
2023-09-26T10:36:17.010Z,18.87
2023-09-26T10:38:46.823Z,18.73
2023-09-26T10:41:17.119Z,18.74
2023-09-26T10:43:48.597Z,18.76
2023-09-26T10:46:24.092Z,18.65
2023-09-26T10:48:54.207Z,18.83
2023-09-26T10:51:24.220Z,18.64
2023-09-26T10:53:55.381Z,18.77
2023-09-26T10:56:25.368Z,18.68
2023-09-26T10:58:57.488Z,18.72
2023-09-26T11:01:47.077Z,18.56
2023-09-26T11:04:17.298Z,18.36
2023-09-26T11:06:47.804Z,18.54
2023-09-26T11:09:18.487Z,18.68
2023-09-26T11:11:48.383Z,18.98
2023-09-26T11:14:18.509Z,19.33
2023-09-26T11:16:53.970Z,19.60
2023-09-26T11:19:26.535Z,19.39
2023-09-26T11:21:56.920Z,19.43
2023-09-26T11:24:28.811Z,19.93
2023-09-26T11:27:02.449Z,19.96
2023-09-26T11:29:33.351Z,20.34
2023-09-26T11:32:07.439Z,20.70
2023-09-26T11:34:39.140Z,20.45
2023-09-26T11:37:10.093Z,20.01
2023-09-26T11:39:40.454Z,20.35
2023-09-26T11:42:12.950Z,19.84
2023-09-26T11:44:42.826Z,19.76
2023-09-26T11:47:15.376Z,20.64
2023-09-26T11:49:46.070Z,20.59
2023-09-26T11:52:15.828Z,20.82
2023-09-26T11:54:45.793Z,20.96
2023-09-26T11:57:16.242Z,21.11
2023-09-26T11:59:46.354Z,20.46
2023-09-26T12:02:18.796Z,20.41
2023-09-26T12:04:48.955Z,20.62
2023-09-26T12:07:18.793Z,20.37
2023-09-26T12:09:48.715Z,20.36
2023-09-26T12:12:18.475Z,20.53
2023-09-26T12:14:50.035Z,20.13
2023-09-26T12:17:22.474Z,19.80
2023-09-26T12:19:52.302Z,19.72
2023-09-26T12:22:22.156Z,19.75
2023-09-26T12:24:51.881Z,19.56
2023-09-26T12:27:22.041Z,19.63
2023-09-26T12:29:52.313Z,19.68
2023-09-26T12:32:24.825Z,19.55
2023-09-26T12:34:54.767Z,19.53
2023-09-26T12:37:24.537Z,19.75
2023-09-26T12:39:54.311Z,19.95
2023-09-26T12:42:24.216Z,19.96
2023-09-26T12:44:54.353Z,20.05
2023-09-26T12:47:26.841Z,20.43
2023-09-26T12:49:58.610Z,20.54
2023-09-26T12:52:30.301Z,20.72
2023-09-26T12:55:00.102Z,20.82
2023-09-26T12:57:29.914Z,20.70
2023-09-26T12:59:59.985Z,20.56
2023-09-26T13:02:32.588Z,20.42
2023-09-26T13:05:03.419Z,20.45
2023-09-26T13:07:33.474Z,20.51
2023-09-26T13:10:03.510Z,20.43
2023-09-26T13:12:33.336Z,20.47
2023-09-26T13:15:03.974Z,20.51
2023-09-26T13:17:36.383Z,20.50
2023-09-26T13:20:12.458Z,20.43
2023-09-26T13:22:42.662Z,20.56
2023-09-26T13:25:12.898Z,20.62
2023-09-26T13:27:42.706Z,20.67
2023-09-26T13:30:13.250Z,20.81
2023-09-26T13:32:45.728Z,20.89
2023-09-26T13:35:12.980Z,20.96
2023-09-26T13:37:42.767Z,20.96
2023-09-26T13:40:13.255Z,20.99
2023-09-26T13:42:43.130Z,21.04
2023-09-26T13:45:13.566Z,21.01
2023-09-26T13:47:46.066Z,21.09
2023-09-26T13:50:16.004Z,21.10
2023-09-26T13:52:45.795Z,21.12
2023-09-26T13:55:15.661Z,21.02
2023-09-26T13:57:45.537Z,21.03
2023-09-26T14:00:16.738Z,21.15
2023-09-26T14:02:49.153Z,21.19
2023-09-26T14:05:20.545Z,21.11
2023-09-26T14:07:50.751Z,21.25
2023-09-26T14:10:22.765Z,21.25
2023-09-26T14:12:53.635Z,21.25
2023-09-26T14:15:23.728Z,21.42
2023-09-26T14:17:56.261Z,21.39
2023-09-26T14:20:26.280Z,21.40
2023-09-26T14:22:57.402Z,21.35
2023-09-26T14:25:27.401Z,21.42
2023-09-26T14:27:56.164Z,21.43
2023-09-26T14:30:26.278Z,21.49
2023-09-26T14:32:59.145Z,21.39
2023-09-26T14:35:28.978Z,21.30
2023-09-26T14:38:01.283Z,21.26
2023-09-26T14:40:31.165Z,21.26
2023-09-26T14:43:02.520Z,21.30
2023-09-26T14:45:39.695Z,21.38
2023-09-26T14:48:15.910Z,21.30
2023-09-26T14:50:45.682Z,21.32
2023-09-26T14:53:15.570Z,21.26
2023-09-26T14:55:45.553Z,21.25
2023-09-26T14:58:15.506Z,21.28
2023-09-26T15:00:46.008Z,21.27
2023-09-26T15:03:19.667Z,21.30
2023-09-26T15:05:49.781Z,21.22
2023-09-26T15:08:19.681Z,21.17
2023-09-26T15:10:49.415Z,21.25
2023-09-26T15:13:19.210Z,21.15
2023-09-26T15:15:49.147Z,21.11
2023-09-26T15:18:21.577Z,21.11
2023-09-26T15:20:51.904Z,21.11
2023-09-26T15:23:21.636Z,21.04
2023-09-26T15:25:51.441Z,21.02
2023-09-26T15:28:23.631Z,20.99
2023-09-26T15:30:54.803Z,20.97
2023-09-26T15:33:27.184Z,20.95
2023-09-26T15:35:57.188Z,20.91
2023-09-26T15:38:27.104Z,20.89
2023-09-26T15:41:11.196Z,20.87
2023-09-26T15:43:40.963Z,20.79
2023-09-26T15:46:10.889Z,20.74
2023-09-26T15:48:45.300Z,20.65
2023-09-26T15:51:15.013Z,20.60
2023-09-26T15:53:45.128Z,20.50
2023-09-26T15:56:15.374Z,20.44
2023-09-26T15:58:47.491Z,20.38
2023-09-26T16:01:17.751Z,20.34
2023-09-26T16:03:50.237Z,20.30
2023-09-26T16:06:20.154Z,20.17
2023-09-26T16:08:49.852Z,20.07
2023-09-26T16:11:19.661Z,19.95
2023-09-26T16:13:49.877Z,19.82
2023-09-26T16:16:20.009Z,19.76
2023-09-26T16:18:52.690Z,19.66
2023-09-26T16:21:22.515Z,19.60
2023-09-26T16:23:52.889Z,19.53
2023-09-26T16:26:22.819Z,19.43
2023-09-26T16:28:56.156Z,19.35
2023-09-26T16:31:25.986Z,19.29
2023-09-26T16:34:00.268Z,19.25
2023-09-26T16:36:30.342Z,19.16
2023-09-26T16:39:00.079Z,19.07
2023-09-26T16:41:29.836Z,18.99
2023-09-26T16:44:00.148Z,18.94
2023-09-26T16:46:30.053Z,18.85
2023-09-26T16:49:02.784Z,18.78
2023-09-26T16:51:32.692Z,18.72
2023-09-26T16:54:02.470Z,18.61
2023-09-26T16:56:32.337Z,18.53
2023-09-26T16:59:03.171Z,18.53
2023-09-26T17:01:33.364Z,18.46
2023-09-26T17:04:05.888Z,18.37
2023-09-26T17:06:35.736Z,18.27
2023-09-26T17:09:06.034Z,18.20
2023-09-26T17:11:36.140Z,18.17
2023-09-26T17:14:06.035Z,18.14
2023-09-26T17:16:37.912Z,18.10
2023-09-26T17:19:10.432Z,18.06
2023-09-26T17:21:41.807Z,18.01
2023-09-26T17:24:12.316Z,17.98
2023-09-26T17:26:45.195Z,17.94
2023-09-26T17:29:14.980Z,17.90
2023-09-26T17:31:45.908Z,17.89
2023-09-26T17:34:19.715Z,17.86
2023-09-26T17:36:51.361Z,17.84
2023-09-26T17:39:21.813Z,17.80
2023-09-26T17:41:51.579Z,17.80
2023-09-26T17:44:21.375Z,17.75
2023-09-26T17:46:53.064Z,17.68
2023-09-26T17:49:25.488Z,17.65
2023-09-26T17:51:55.232Z,17.60
2023-09-26T17:54:25.024Z,17.56
2023-09-26T17:56:54.815Z,17.51
2023-09-26T17:59:24.641Z,17.48
2023-09-26T18:01:54.539Z,17.43
2023-09-26T18:04:28.034Z,17.39
2023-09-26T18:07:00.915Z,17.33
2023-09-26T18:09:31.476Z,17.18
2023-09-26T18:12:01.377Z,17.10
2023-09-26T18:14:31.088Z,17.15
2023-09-26T18:17:01.244Z,17.02
2023-09-26T18:19:33.748Z,16.97
2023-09-26T18:22:03.919Z,16.99
2023-09-26T18:24:33.671Z,16.97
2023-09-26T18:27:04.509Z,16.93
2023-09-26T18:29:34.265Z,16.99
2023-09-26T18:32:04.067Z,16.97
2023-09-26T18:34:36.425Z,16.88
2023-09-26T18:37:06.392Z,16.91
2023-09-26T18:39:36.239Z,16.93
2023-09-26T18:42:06.252Z,16.86
2023-09-26T18:44:36.349Z,16.89
2023-09-26T18:47:06.066Z,16.87
2023-09-26T18:49:38.417Z,16.90
2023-09-26T18:52:08.218Z,16.82
2023-09-26T18:54:38.600Z,16.79
2023-09-26T18:57:11.509Z,16.74
2023-09-26T18:59:41.866Z,16.72
2023-09-26T19:02:13.352Z,16.67
2023-09-26T19:04:46.088Z,16.65
2023-09-26T19:07:16.898Z,16.62
2023-09-26T19:09:46.636Z,16.64
2023-09-26T19:12:16.376Z,16.60
2023-09-26T19:14:46.165Z,16.58
2023-09-26T19:17:16.100Z,16.61
2023-09-26T19:19:48.537Z,16.59
2023-09-26T19:22:19.831Z,16.52
2023-09-26T19:24:49.775Z,16.51
2023-09-26T19:27:20.000Z,16.43
2023-09-26T19:29:49.736Z,16.38
2023-09-26T19:32:19.609Z,16.33
2023-09-26T19:34:52.414Z,16.29
2023-09-26T19:37:22.176Z,16.27
2023-09-26T19:39:52.175Z,16.25
2023-09-26T19:42:21.985Z,16.20
2023-09-26T19:44:52.250Z,16.17
2023-09-26T19:47:26.663Z,16.11
2023-09-26T19:49:59.148Z,16.12
2023-09-26T19:52:29.341Z,16.07
2023-09-26T19:54:59.445Z,16.06
2023-09-26T19:57:29.637Z,16.07
2023-09-26T19:59:59.357Z,16.03
2023-09-26T20:02:31.740Z,16.01
2023-09-26T20:05:04.754Z,16.01
2023-09-26T20:07:34.494Z,16.00
2023-09-26T20:10:04.282Z,15.96
2023-09-26T20:12:34.185Z,15.93
2023-09-26T20:15:18.535Z,15.88
2023-09-26T20:17:53.171Z,15.84
2023-09-26T20:20:27.109Z,15.81
2023-09-26T20:22:56.917Z,15.81
2023-09-26T20:25:26.705Z,15.78
2023-09-26T20:27:56.520Z,15.73
2023-09-26T20:30:26.223Z,15.72
2023-09-26T20:32:56.032Z,15.70
2023-09-26T20:35:28.488Z,15.66
2023-09-26T20:37:58.256Z,15.66
2023-09-26T20:40:28.016Z,15.64
2023-09-26T20:42:57.807Z,15.65
2023-09-26T20:45:27.661Z,15.62
2023-09-26T20:47:57.537Z,15.59
2023-09-26T20:50:30.039Z,15.59
2023-09-26T20:52:59.854Z,15.57
2023-09-26T20:55:29.981Z,15.51
2023-09-26T20:57:59.691Z,15.43
2023-09-26T21:00:29.871Z,15.49
2023-09-26T21:02:59.838Z,15.47
2023-09-26T21:05:32.187Z,15.46
2023-09-26T21:08:02.121Z,15.43
2023-09-26T21:10:32.051Z,15.46
2023-09-26T21:13:01.933Z,15.43
2023-09-26T21:15:31.719Z,15.49
2023-09-26T21:18:01.681Z,15.40
2023-09-26T21:20:34.090Z,15.44
2023-09-26T21:23:03.845Z,15.46
2023-09-26T21:25:33.666Z,15.45
2023-09-26T21:28:03.775Z,15.45
2023-09-26T21:30:33.592Z,15.38
2023-09-26T21:33:03.359Z,15.31
2023-09-26T21:35:35.744Z,15.30
2023-09-26T21:38:07.072Z,15.29
2023-09-26T21:40:36.870Z,15.20
2023-09-26T21:43:07.046Z,15.17
2023-09-26T21:45:39.112Z,15.14
2023-09-26T21:48:10.594Z,15.15
2023-09-26T21:50:43.109Z,15.17
2023-09-26T21:53:13.029Z,15.16
2023-09-26T21:55:46.398Z,15.21
2023-09-26T21:58:17.213Z,15.17
2023-09-26T22:00:47.630Z,15.11
2023-09-26T22:03:17.484Z,15.14
2023-09-26T22:05:49.925Z,15.09
2023-09-26T22:08:19.715Z,15.07
2023-09-26T22:10:50.283Z,15.06
2023-09-26T22:13:20.212Z,15.07
2023-09-26T22:15:50.063Z,15.00
2023-09-26T22:18:20.709Z,14.95
2023-09-26T22:20:54.665Z,14.88
2023-09-26T22:23:27.306Z,14.85
2023-09-26T22:25:57.220Z,14.86
2023-09-26T22:28:27.022Z,14.87
2023-09-26T22:30:56.970Z,14.88
2023-09-26T22:33:27.745Z,14.94
2023-09-26T22:36:00.395Z,14.97
2023-09-26T22:38:30.120Z,14.90
2023-09-26T22:40:59.868Z,14.84
2023-09-26T22:43:29.697Z,14.76
2023-09-26T22:46:02.191Z,14.68
2023-09-26T22:48:32.008Z,14.62
2023-09-26T22:51:04.318Z,14.61
2023-09-26T22:53:34.066Z,14.61
2023-09-26T22:56:06.216Z,14.57
2023-09-26T22:58:36.109Z,14.57
2023-09-26T23:01:05.842Z,14.71
2023-09-26T23:03:37.418Z,14.77
2023-09-26T23:06:12.795Z,14.70
2023-09-26T23:08:42.516Z,14.59
2023-09-26T23:11:12.299Z,14.52
2023-09-26T23:13:42.107Z,14.45
2023-09-26T23:16:12.019Z,14.47
2023-09-26T23:18:42.378Z,14.42
2023-09-26T23:21:14.781Z,14.41
2023-09-26T23:23:44.521Z,14.50
2023-09-26T23:26:14.841Z,14.46
2023-09-26T23:28:47.225Z,14.41
2023-09-26T23:31:17.781Z,14.30
2023-09-26T23:33:47.621Z,14.22
2023-09-26T23:36:20.013Z,14.12
2023-09-26T23:38:49.865Z,14.06
2023-09-26T23:41:21.267Z,14.02
2023-09-26T23:43:51.669Z,14.02
2023-09-26T23:46:21.597Z,13.99
2023-09-26T23:48:51.487Z,13.95
2023-09-26T23:51:23.992Z,13.97
2023-09-26T23:53:53.891Z,14.05
2023-09-26T23:56:24.825Z,14.05
2023-09-26T23:58:55.470Z,14.05
